sensor_id;sensor_type;location;lat;lon;timestamp;pressure;altitude;pressure_sealevel;temperature;humidity
9740;BME280;4909;42.680;26.324;2022-12-10T00:01:32;98139.25;;;16.80;96.00
9740;BME280;4909;42.680;26.324;2022-12-10T00:04:00;98144.81;;;16.66;96.25
9740;BME280;4909;42.680;26.324;2022-12-10T00:06:28;98124.69;;;16.26;95.68
9740;BME280;4909;42.680;26.324;2022-12-10T00:08:57;98110.97;;;16.30;99.18
9740;BME280;4909;42.680;26.324;2022-12-10T00:11:25;98135.75;;;16.21;96.36
9740;BME280;4909;42.680;26.324;2022-12-10T00:13:52;98130.06;;;16.02;98.95
9740;BME280;4909;42.680;26.324;2022-12-10T00:16:21;98132.22;;;16.21;100.00
9740;BME280;4909;42.680;26.324;2022-12-10T00:18:48;98138.94;;;16.26;98.82
9740;BME280;4909;42.680;26.324;2022-12-10T00:21:19;98133.09;;;16.32;99.43
9740;BME280;4909;42.680;26.324;2022-12-10T00:23:46;98108.59;;;15.91;95.20
9740;BME280;4909;42.680;26.324;2022-12-10T00:26:16;98127.44;;;16.13;99.34
9740;BME280;4909;42.680;26.324;2022-12-10T00:28:44;98131.69;;;16.39;100.00
9740;BME280;4909;42.680;26.324;2022-12-10T00:31:12;98127.69;;;16.45;98.54
9740;BME280;4909;42.680;26.324;2022-12-10T00:33:41;98131.47;;;16.53;98.55
9740;BME280;4909;42.680;26.324;2022-12-10T00:36:10;98133.56;;;16.50;97.79
9740;BME280;4909;42.680;26.324;2022-12-10T00:38:37;98137.19;;;16.49;99.82
9740;BME280;4909;42.680;26.324;2022-12-10T00:41:04;98116.44;;;16.29;98.04
9740;BME280;4909;42.680;26.324;2022-12-10T00:43:33;98135.28;;;16.27;98.02
9740;BME280;4909;42.680;26.324;2022-12-10T00:46:00;98109.78;;;16.11;98.90
9740;BME280;4909;42.680;26.324;2022-12-10T00:48:27;98120.81;;;16.30;99.55
9740;BME280;4909;42.680;26.324;2022-12-10T00:50:56;98110.19;;;15.93;96.33
9740;BME280;4909;42.680;26.324;2022-12-10T00:53:23;98108.06;;;16.09;100.00
9740;BME280;4909;42.680;26.324;2022-12-10T00:55:51;98138.25;;;16.59;99.90
9740;BME280;4909;42.680;26.324;2022-12-10T00:58:19;98108.66;;;16.72;99.15
9740;BME280;4909;42.680;26.324;2022-12-10T01:00:48;98103.72;;;16.55;97.45
9740;BME280;4909;42.680;26.324;2022-12-10T01:03:15;98119.72;;;16.67;98.96
9740;BME280;4909;42.680;26.324;2022-12-10T01:05:42;98111.38;;;16.48;96.43
9740;BME280;4909;42.680;26.324;2022-12-10T01:08:08;98111.56;;;16.34;99.85
9740;BME280;4909;42.680;26.324;2022-12-10T01:10:35;98118.56;;;16.47;99.87
9740;BME280;4909;42.680;26.324;2022-12-10T01:13:02;98097.72;;;16.40;100.00
9740;BME280;4909;42.680;26.324;2022-12-10T01:15:29;98125.34;;;16.75;99.11
9740;BME280;4909;42.680;26.324;2022-12-10T01:17:57;98125.84;;;16.69;94.83
9740;BME280;4909;42.680;26.324;2022-12-10T01:20:24;98087.44;;;16.23;96.96
9740;BME280;4909;42.680;26.324;2022-12-10T01:22:51;98123.53;;;16.17;98.90
9740;BME280;4909;42.680;26.324;2022-12-10T01:25:18;98112.84;;;16.17;100.00
9740;BME280;4909;42.680;26.324;2022-12-10T01:27:45;98111.38;;;16.13;100.00
9740;BME280;4909;42.680;26.324;2022-12-10T01:30:12;98114.75;;;16.04;100.00
9740;BME280;4909;42.680;26.324;2022-12-10T01:32:38;98107.81;;;16.01;100.00
9740;BME280;4909;42.680;26.324;2022-12-10T01:35:07;98109.03;;;16.08;98.99
9740;BME280;4909;42.680;26.324;2022-12-10T01:37:34;98102.81;;;15.60;99.88
9740;BME280;4909;42.680;26.324;2022-12-10T01:40:01;98088.94;;;15.55;100.00
9740;BME280;4909;42.680;26.324;2022-12-10T01:42:28;98078.03;;;15.58;100.00
9740;BME280;4909;42.680;26.324;2022-12-10T01:45:06;98097.09;;;15.78;100.00
9740;BME280;4909;42.680;26.324;2022-12-10T01:47:33;98088.50;;;15.85;100.00
9740;BME280;4909;42.680;26.324;2022-12-10T01:50:00;98071.66;;;15.72;100.00
9740;BME280;4909;42.680;26.324;2022-12-10T01:52:29;98082.63;;;15.80;100.00
9740;BME280;4909;42.680;26.324;2022-12-10T01:54:55;98092.72;;;16.00;100.00
9740;BME280;4909;42.680;26.324;2022-12-10T01:57:24;98081.25;;;15.98;100.00
9740;BME280;4909;42.680;26.324;2022-12-10T01:59:53;98062.78;;;15.72;100.00
9740;BME280;4909;42.680;26.324;2022-12-10T02:02:30;98090.53;;;15.58;100.00
9740;BME280;4909;42.680;26.324;2022-12-10T02:05:18;98069.09;;;15.34;100.00
9740;BME280;4909;42.680;26.324;2022-12-10T02:07:59;98046.28;;;15.54;100.00
9740;BME280;4909;42.680;26.324;2022-12-10T02:10:42;98054.31;;;15.89;100.00
9740;BME280;4909;42.680;26.324;2022-12-10T02:13:13;98072.75;;;16.04;100.00
9740;BME280;4909;42.680;26.324;2022-12-10T02:15:48;98078.41;;;15.65;100.00
9740;BME280;4909;42.680;26.324;2022-12-10T02:18:20;98071.75;;;15.94;100.00
9740;BME280;4909;42.680;26.324;2022-12-10T02:20:49;98046.16;;;16.14;100.00
9740;BME280;4909;42.680;26.324;2022-12-10T02:23:24;98063.06;;;16.61;100.00
9740;BME280;4909;42.680;26.324;2022-12-10T02:26:03;98083.94;;;16.68;96.90
9740;BME280;4909;42.680;26.324;2022-12-10T02:28:38;98092.22;;;16.41;99.25
9740;BME280;4909;42.680;26.324;2022-12-10T02:31:08;98065.94;;;16.35;99.12
9740;BME280;4909;42.680;26.324;2022-12-10T02:33:38;98082.66;;;16.15;97.52
9740;BME280;4909;42.680;26.324;2022-12-10T02:36:08;98066.66;;;16.26;100.00
9740;BME280;4909;42.680;26.324;2022-12-10T02:38:38;98066.59;;;16.50;99.81
9740;BME280;4909;42.680;26.324;2022-12-10T02:41:10;98062.59;;;16.67;98.74
9740;BME280;4909;42.680;26.324;2022-12-10T02:43:40;98062.41;;;17.03;98.22
9740;BME280;4909;42.680;26.324;2022-12-10T02:46:10;98039.84;;;16.94;96.85
9740;BME280;4909;42.680;26.324;2022-12-10T02:48:37;98073.09;;;17.14;96.53
9740;BME280;4909;42.680;26.324;2022-12-10T02:51:06;98068.84;;;16.89;95.31
9740;BME280;4909;42.680;26.324;2022-12-10T02:53:32;98067.13;;;16.77;95.90
9740;BME280;4909;42.680;26.324;2022-12-10T02:56:19;98054.22;;;16.71;98.23
9740;BME280;4909;42.680;26.324;2022-12-10T02:58:59;98064.34;;;16.79;96.41
9740;BME280;4909;42.680;26.324;2022-12-10T03:01:37;98061.53;;;16.80;97.71
9740;BME280;4909;42.680;26.324;2022-12-10T03:04:13;98068.72;;;16.91;95.58
9740;BME280;4909;42.680;26.324;2022-12-10T03:06:43;98039.13;;;16.92;96.47
9740;BME280;4909;42.680;26.324;2022-12-10T03:09:17;98063.13;;;17.16;96.68
9740;BME280;4909;42.680;26.324;2022-12-10T03:11:46;98067.50;;;17.17;93.72
9740;BME280;4909;42.680;26.324;2022-12-10T03:14:18;98068.00;;;17.22;94.82
9740;BME280;4909;42.680;26.324;2022-12-10T03:16:51;98057.16;;;17.02;94.05
9740;BME280;4909;42.680;26.324;2022-12-10T03:19:23;98059.34;;;17.08;96.28
9740;BME280;4909;42.680;26.324;2022-12-10T03:21:51;98044.72;;;16.89;95.38
9740;BME280;4909;42.680;26.324;2022-12-10T03:24:19;98034.38;;;17.07;96.49
9740;BME280;4909;42.680;26.324;2022-12-10T03:26:48;98044.72;;;17.23;95.56
9740;BME280;4909;42.680;26.324;2022-12-10T03:29:21;98047.00;;;17.38;95.16
9740;BME280;4909;42.680;26.324;2022-12-10T03:31:52;98047.25;;;17.35;94.73
9740;BME280;4909;42.680;26.324;2022-12-10T03:34:20;98053.97;;;17.30;93.95
9740;BME280;4909;42.680;26.324;2022-12-10T03:36:48;98056.41;;;17.11;94.31
9740;BME280;4909;42.680;26.324;2022-12-10T03:39:16;98044.84;;;16.88;96.13
9740;BME280;4909;42.680;26.324;2022-12-10T03:41:44;98044.59;;;16.91;95.89
9740;BME280;4909;42.680;26.324;2022-12-10T03:44:10;97988.84;;;16.17;95.56
9740;BME280;4909;42.680;26.324;2022-12-10T03:46:38;98044.38;;;16.37;98.90
9740;BME280;4909;42.680;26.324;2022-12-10T03:49:06;98036.94;;;16.29;98.53
9740;BME280;4909;42.680;26.324;2022-12-10T03:51:33;98015.53;;;15.94;98.40
9740;BME280;4909;42.680;26.324;2022-12-10T03:54:00;98036.34;;;16.26;100.00
9740;BME280;4909;42.680;26.324;2022-12-10T03:56:26;98041.91;;;16.23;99.51
9740;BME280;4909;42.680;26.324;2022-12-10T03:58:53;98039.72;;;16.17;97.58
9740;BME280;4909;42.680;26.324;2022-12-10T04:01:20;98042.16;;;16.20;99.86
9740;BME280;4909;42.680;26.324;2022-12-10T04:03:47;98039.13;;;16.24;99.59
9740;BME280;4909;42.680;26.324;2022-12-10T04:06:17;98024.81;;;16.01;99.11
9740;BME280;4909;42.680;26.324;2022-12-10T04:08:45;98025.34;;;16.18;100.00
9740;BME280;4909;42.680;26.324;2022-12-10T04:11:13;97998.50;;;16.30;100.00
9740;BME280;4909;42.680;26.324;2022-12-10T04:13:40;98001.72;;;16.69;99.62
9740;BME280;4909;42.680;26.324;2022-12-10T04:16:25;98016.69;;;16.82;96.05
9740;BME280;4909;42.680;26.324;2022-12-10T04:18:56;98010.97;;;16.87;96.18
9740;BME280;4909;42.680;26.324;2022-12-10T04:21:25;98003.06;;;16.74;97.78
9740;BME280;4909;42.680;26.324;2022-12-10T04:24:09;98014.50;;;16.87;96.84
9740;BME280;4909;42.680;26.324;2022-12-10T04:26:55;97987.34;;;16.92;96.85
9740;BME280;4909;42.680;26.324;2022-12-10T04:29:24;98008.78;;;17.03;96.02
9740;BME280;4909;42.680;26.324;2022-12-10T04:31:51;98012.19;;;17.05;96.18
9740;BME280;4909;42.680;26.324;2022-12-10T04:34:19;98013.41;;;17.12;96.47
9740;BME280;4909;42.680;26.324;2022-12-10T04:36:48;98016.56;;;16.95;96.28
9740;BME280;4909;42.680;26.324;2022-12-10T04:39:15;97995.88;;;16.86;97.26
9740;BME280;4909;42.680;26.324;2022-12-10T04:41:43;98011.72;;;16.89;96.66
9740;BME280;4909;42.680;26.324;2022-12-10T04:44:11;98020.22;;;16.61;95.79
9740;BME280;4909;42.680;26.324;2022-12-10T04:46:38;98019.31;;;16.38;97.09
9740;BME280;4909;42.680;26.324;2022-12-10T04:49:05;97947.41;;;15.87;98.29
9740;BME280;4909;42.680;26.324;2022-12-10T04:51:31;97983.78;;;16.36;100.00
9740;BME280;4909;42.680;26.324;2022-12-10T04:54:00;97992.06;;;16.55;99.51
9740;BME280;4909;42.680;26.324;2022-12-10T04:56:27;98014.38;;;16.78;98.20
9740;BME280;4909;42.680;26.324;2022-12-10T04:58:54;98010.25;;;16.74;97.78
9740;BME280;4909;42.680;26.324;2022-12-10T05:01:21;97966.75;;;16.70;97.44
9740;BME280;4909;42.680;26.324;2022-12-10T05:03:48;97971.00;;;17.06;97.61
9740;BME280;4909;42.680;26.324;2022-12-10T05:06:17;97983.25;;;17.31;95.36
9740;BME280;4909;42.680;26.324;2022-12-10T05:08:45;97986.41;;;17.36;93.96
9740;BME280;4909;42.680;26.324;2022-12-10T05:11:15;98000.69;;;17.14;94.17
9740;BME280;4909;42.680;26.324;2022-12-10T05:13:42;97975.38;;;17.18;96.08
9740;BME280;4909;42.680;26.324;2022-12-10T05:16:11;97973.50;;;17.30;94.81
9740;BME280;4909;42.680;26.324;2022-12-10T05:18:38;98005.94;;;17.27;94.30
9740;BME280;4909;42.680;26.324;2022-12-10T05:21:07;97979.78;;;16.97;95.98
9740;BME280;4909;42.680;26.324;2022-12-10T05:23:37;97973.09;;;16.91;95.84
9740;BME280;4909;42.680;26.324;2022-12-10T05:26:04;98003.69;;;16.89;96.58
9740;BME280;4909;42.680;26.324;2022-12-10T05:28:34;97989.78;;;16.62;97.20
9740;BME280;4909;42.680;26.324;2022-12-10T05:31:02;97998.78;;;16.72;98.47
9740;BME280;4909;42.680;26.324;2022-12-10T05:33:28;98011.28;;;16.49;97.89
9740;BME280;4909;42.680;26.324;2022-12-10T05:35:57;97993.50;;;16.37;100.00
9740;BME280;4909;42.680;26.324;2022-12-10T05:38:24;97981.78;;;16.27;99.78
9740;BME280;4909;42.680;26.324;2022-12-10T05:40:51;97993.97;;;16.42;99.94
9740;BME280;4909;42.680;26.324;2022-12-10T05:43:19;97976.44;;;16.27;99.53
9740;BME280;4909;42.680;26.324;2022-12-10T05:45:48;98006.06;;;16.47;99.61
9740;BME280;4909;42.680;26.324;2022-12-10T05:48:15;98004.69;;;16.42;99.62
9740;BME280;4909;42.680;26.324;2022-12-10T05:50:42;97999.09;;;16.34;99.49
9740;BME280;4909;42.680;26.324;2022-12-10T05:53:09;97999.84;;;16.36;100.00
9740;BME280;4909;42.680;26.324;2022-12-10T05:55:39;97999.59;;;16.39;100.00
9740;BME280;4909;42.680;26.324;2022-12-10T05:58:06;98005.00;;;16.72;100.00
9740;BME280;4909;42.680;26.324;2022-12-10T06:00:33;98014.03;;;16.60;98.33
9740;BME280;4909;42.680;26.324;2022-12-10T06:03:01;97992.19;;;16.53;100.00
9740;BME280;4909;42.680;26.324;2022-12-10T06:05:28;98006.47;;;16.87;100.00
9740;BME280;4909;42.680;26.324;2022-12-10T06:07:54;97974.19;;;16.89;98.99
9740;BME280;4909;42.680;26.324;2022-12-10T06:10:21;98001.09;;;16.76;97.07
9740;BME280;4909;42.680;26.324;2022-12-10T06:12:48;97984.91;;;16.78;99.50
9740;BME280;4909;42.680;26.324;2022-12-10T06:15:15;97977.59;;;16.91;99.50
9740;BME280;4909;42.680;26.324;2022-12-10T06:17:42;97987.44;;;17.02;98.60
9740;BME280;4909;42.680;26.324;2022-12-10T06:20:11;98001.22;;;17.08;99.10
9740;BME280;4909;42.680;26.324;2022-12-10T06:22:38;98001.59;;;17.04;98.89
9740;BME280;4909;42.680;26.324;2022-12-10T06:25:05;97992.81;;;16.90;99.27
9740;BME280;4909;42.680;26.324;2022-12-10T06:27:32;98006.22;;;16.90;99.16
9740;BME280;4909;42.680;26.324;2022-12-10T06:29:59;97985.50;;;17.04;100.00
9740;BME280;4909;42.680;26.324;2022-12-10T06:32:28;97990.50;;;16.97;99.54
9740;BME280;4909;42.680;26.324;2022-12-10T06:34:55;98001.44;;;17.05;99.79
9740;BME280;4909;42.680;26.324;2022-12-10T06:37:23;97996.09;;;17.05;98.98
9740;BME280;4909;42.680;26.324;2022-12-10T06:39:50;97994.25;;;16.94;98.64
9740;BME280;4909;42.680;26.324;2022-12-10T06:42:18;97998.53;;;16.97;99.76
9740;BME280;4909;42.680;26.324;2022-12-10T06:44:45;97968.34;;;16.84;100.00
9740;BME280;4909;42.680;26.324;2022-12-10T06:47:12;97952.00;;;16.87;100.00
9740;BME280;4909;42.680;26.324;2022-12-10T06:49:39;97974.41;;;16.86;99.09
9740;BME280;4909;42.680;26.324;2022-12-10T06:52:07;97999.09;;;17.34;100.00
9740;BME280;4909;42.680;26.324;2022-12-10T06:54:35;98000.09;;;17.22;97.83
9740;BME280;4909;42.680;26.324;2022-12-10T06:57:02;97984.28;;;16.85;99.13
9740;BME280;4909;42.680;26.324;2022-12-10T06:59:29;97998.78;;;16.83;99.37
9740;BME280;4909;42.680;26.324;2022-12-10T07:01:56;97988.91;;;16.61;100.00
9740;BME280;4909;42.680;26.324;2022-12-10T07:04:23;97998.91;;;16.81;100.00
9740;BME280;4909;42.680;26.324;2022-12-10T07:06:50;97973.69;;;16.62;100.00
9740;BME280;4909;42.680;26.324;2022-12-10T07:09:17;97990.16;;;16.79;100.00
9740;BME280;4909;42.680;26.324;2022-12-10T07:11:45;97927.16;;;16.51;100.00
9740;BME280;4909;42.680;26.324;2022-12-10T07:14:14;97990.50;;;17.08;100.00
9740;BME280;4909;42.680;26.324;2022-12-10T07:16:41;97990.94;;;17.24;100.00
9740;BME280;4909;42.680;26.324;2022-12-10T07:19:09;97993.97;;;17.42;100.00
9740;BME280;4909;42.680;26.324;2022-12-10T07:21:38;97992.66;;;17.57;100.00
9740;BME280;4909;42.680;26.324;2022-12-10T07:24:09;97994.25;;;17.71;99.76
9740;BME280;4909;42.680;26.324;2022-12-10T07:26:38;97994.19;;;17.61;97.60
9740;BME280;4909;42.680;26.324;2022-12-10T07:29:09;97959.47;;;17.37;98.44
9740;BME280;4909;42.680;26.324;2022-12-10T07:31:38;97991.22;;;17.53;97.45
9740;BME280;4909;42.680;26.324;2022-12-10T07:34:05;97961.78;;;17.31;99.81
9740;BME280;4909;42.680;26.324;2022-12-10T07:36:32;97972.72;;;17.50;98.24
9740;BME280;4909;42.680;26.324;2022-12-10T07:38:59;97993.59;;;17.35;98.07
9740;BME280;4909;42.680;26.324;2022-12-10T07:41:26;97968.50;;;17.25;97.81
9740;BME280;4909;42.680;26.324;2022-12-10T07:43:53;97981.06;;;17.68;100.00
9740;BME280;4909;42.680;26.324;2022-12-10T07:46:23;97987.44;;;17.56;97.60
9740;BME280;4909;42.680;26.324;2022-12-10T07:48:51;97926.00;;;17.10;97.16
9740;BME280;4909;42.680;26.324;2022-12-10T07:51:19;97989.59;;;17.73;99.36
9740;BME280;4909;42.680;26.324;2022-12-10T07:53:48;97980.38;;;17.66;98.04
9740;BME280;4909;42.680;26.324;2022-12-10T07:56:15;97988.97;;;17.80;98.15
9740;BME280;4909;42.680;26.324;2022-12-10T07:58:42;97995.19;;;17.81;94.89
9740;BME280;4909;42.680;26.324;2022-12-10T08:01:11;97989.94;;;17.79;97.75
9740;BME280;4909;42.680;26.324;2022-12-10T08:03:40;97975.13;;;17.64;98.17
9740;BME280;4909;42.680;26.324;2022-12-10T08:06:09;97978.03;;;17.93;98.20
9740;BME280;4909;42.680;26.324;2022-12-10T08:08:37;97982.56;;;17.93;97.45
9740;BME280;4909;42.680;26.324;2022-12-10T08:11:05;97990.16;;;18.08;96.77
9740;BME280;4909;42.680;26.324;2022-12-10T08:13:35;97990.22;;;18.18;97.42
9740;BME280;4909;42.680;26.324;2022-12-10T08:16:18;97986.13;;;18.14;93.96
9740;BME280;4909;42.680;26.324;2022-12-10T08:18:49;97981.91;;;17.79;94.60
9740;BME280;4909;42.680;26.324;2022-12-10T08:21:17;97984.13;;;17.74;97.85
9740;BME280;4909;42.680;26.324;2022-12-10T08:23:45;97970.31;;;18.00;96.98
9740;BME280;4909;42.680;26.324;2022-12-10T08:26:15;97981.59;;;18.14;92.81
9740;BME280;4909;42.680;26.324;2022-12-10T08:28:42;97972.06;;;18.31;94.38
9740;BME280;4909;42.680;26.324;2022-12-10T08:31:10;97968.97;;;18.36;92.38
9740;BME280;4909;42.680;26.324;2022-12-10T08:33:38;97972.19;;;18.50;91.76
9740;BME280;4909;42.680;26.324;2022-12-10T08:36:10;97972.31;;;18.70;89.95
9740;BME280;4909;42.680;26.324;2022-12-10T08:38:37;97970.22;;;18.73;91.12
9740;BME280;4909;42.680;26.324;2022-12-10T08:41:08;97966.41;;;19.16;91.42
9740;BME280;4909;42.680;26.324;2022-12-10T08:43:35;97964.34;;;19.48;87.17
9740;BME280;4909;42.680;26.324;2022-12-10T08:46:02;97964.22;;;19.59;87.41
9740;BME280;4909;42.680;26.324;2022-12-10T08:48:29;97934.75;;;19.67;88.52
9740;BME280;4909;42.680;26.324;2022-12-10T08:50:57;97969.75;;;19.86;86.45
9740;BME280;4909;42.680;26.324;2022-12-10T08:53:25;97965.06;;;20.08;86.58
9740;BME280;4909;42.680;26.324;2022-12-10T08:55:53;97959.81;;;20.16;86.73
9740;BME280;4909;42.680;26.324;2022-12-10T08:58:20;97969.03;;;20.23;83.27
9740;BME280;4909;42.680;26.324;2022-12-10T09:00:48;97967.44;;;20.39;84.16
9740;BME280;4909;42.680;26.324;2022-12-10T09:03:15;97932.69;;;20.27;84.98
9740;BME280;4909;42.680;26.324;2022-12-10T09:05:43;97958.78;;;20.46;82.86
9740;BME280;4909;42.680;26.324;2022-12-10T09:08:10;97952.13;;;20.40;81.75
9740;BME280;4909;42.680;26.324;2022-12-10T09:10:39;97942.16;;;20.50;84.08
9740;BME280;4909;42.680;26.324;2022-12-10T09:13:06;97928.25;;;20.55;83.12
9740;BME280;4909;42.680;26.324;2022-12-10T09:15:33;97931.56;;;20.20;80.76
9740;BME280;4909;42.680;26.324;2022-12-10T09:18:00;97925.06;;;20.13;83.24
9740;BME280;4909;42.680;26.324;2022-12-10T09:20:27;97886.94;;;20.08;87.55
9740;BME280;4909;42.680;26.324;2022-12-10T09:22:53;97923.03;;;20.44;83.49
9740;BME280;4909;42.680;26.324;2022-12-10T09:25:20;97918.84;;;20.59;81.25
9740;BME280;4909;42.680;26.324;2022-12-10T09:27:49;97887.75;;;20.64;80.39
9740;BME280;4909;42.680;26.324;2022-12-10T09:30:16;97921.78;;;21.30;78.40
9740;BME280;4909;42.680;26.324;2022-12-10T09:32:43;97912.97;;;21.28;78.45
9740;BME280;4909;42.680;26.324;2022-12-10T09:35:10;97915.97;;;20.97;77.08
9740;BME280;4909;42.680;26.324;2022-12-10T09:37:37;97910.13;;;20.74;79.21
9740;BME280;4909;42.680;26.324;2022-12-10T09:40:04;97909.53;;;20.44;77.57
9740;BME280;4909;42.680;26.324;2022-12-10T09:42:41;97892.16;;;20.38;80.33
9740;BME280;4909;42.680;26.324;2022-12-10T09:45:18;97877.03;;;20.55;80.94
9740;BME280;4909;42.680;26.324;2022-12-10T09:47:54;97891.22;;;20.57;79.74
9740;BME280;4909;42.680;26.324;2022-12-10T09:50:29;97875.97;;;20.65;78.02
9740;BME280;4909;42.680;26.324;2022-12-10T09:52:58;97877.97;;;20.63;76.25
9740;BME280;4909;42.680;26.324;2022-12-10T09:55:34;97872.44;;;20.65;77.16
9740;BME280;4909;42.680;26.324;2022-12-10T09:58:03;97864.97;;;20.49;79.39
9740;BME280;4909;42.680;26.324;2022-12-10T10:00:35;97866.28;;;20.45;79.87
9740;BME280;4909;42.680;26.324;2022-12-10T10:03:03;97862.41;;;20.11;78.42
9740;BME280;4909;42.680;26.324;2022-12-10T10:05:35;97871.19;;;20.13;80.04
9740;BME280;4909;42.680;26.324;2022-12-10T10:08:03;97861.19;;;19.86;79.18
9740;BME280;4909;42.680;26.324;2022-12-10T10:10:33;97844.34;;;19.74;81.20
9740;BME280;4909;42.680;26.324;2022-12-10T10:13:11;97848.97;;;19.91;80.03
9740;BME280;4909;42.680;26.324;2022-12-10T10:15:43;97846.69;;;19.96;79.15
9740;BME280;4909;42.680;26.324;2022-12-10T10:18:15;97841.59;;;20.03;80.85
9740;BME280;4909;42.680;26.324;2022-12-10T10:20:45;97844.03;;;19.87;78.60
9740;BME280;4909;42.680;26.324;2022-12-10T10:23:14;97827.81;;;19.60;80.11
9740;BME280;4909;42.680;26.324;2022-12-10T10:25:41;97806.13;;;19.51;81.41
9740;BME280;4909;42.680;26.324;2022-12-10T10:28:11;97823.53;;;19.47;82.58
9740;BME280;4909;42.680;26.324;2022-12-10T10:30:42;97804.03;;;19.45;82.77
9740;BME280;4909;42.680;26.324;2022-12-10T10:33:12;97823.69;;;19.36;80.18
9740;BME280;4909;42.680;26.324;2022-12-10T10:35:45;97819.41;;;19.43;83.98
9740;BME280;4909;42.680;26.324;2022-12-10T10:38:17;97823.66;;;19.27;82.70
9740;BME280;4909;42.680;26.324;2022-12-10T10:40:49;97812.09;;;19.45;82.09
9740;BME280;4909;42.680;26.324;2022-12-10T10:43:20;97814.59;;;19.57;81.88
9740;BME280;4909;42.680;26.324;2022-12-10T10:45:52;97783.88;;;19.59;80.65
9740;BME280;4909;42.680;26.324;2022-12-10T10:48:22;97805.63;;;19.75;81.98
9740;BME280;4909;42.680;26.324;2022-12-10T10:50:53;97818.44;;;19.54;80.42
9740;BME280;4909;42.680;26.324;2022-12-10T10:53:31;97799.16;;;19.68;83.08
9740;BME280;4909;42.680;26.324;2022-12-10T10:56:05;97802.56;;;19.70;80.01
9740;BME280;4909;42.680;26.324;2022-12-10T10:58:34;97801.97;;;19.76;80.88
9740;BME280;4909;42.680;26.324;2022-12-10T11:01:04;97796.75;;;19.75;81.12
9740;BME280;4909;42.680;26.324;2022-12-10T11:03:35;97796.47;;;19.68;80.63
9740;BME280;4909;42.680;26.324;2022-12-10T11:06:06;97801.56;;;19.62;79.37
9740;BME280;4909;42.680;26.324;2022-12-10T11:08:38;97790.38;;;19.57;83.54
9740;BME280;4909;42.680;26.324;2022-12-10T11:11:12;97763.34;;;19.39;82.85
9740;BME280;4909;42.680;26.324;2022-12-10T11:13:43;97785.72;;;19.59;81.34
9740;BME280;4909;42.680;26.324;2022-12-10T11:16:17;97796.16;;;19.71;81.63
9740;BME280;4909;42.680;26.324;2022-12-10T11:18:56;97765.28;;;19.66;79.84
9740;BME280;4909;42.680;26.324;2022-12-10T11:21:29;97789.25;;;19.69;79.22
9740;BME280;4909;42.680;26.324;2022-12-10T11:23:59;97766.47;;;19.53;80.87
9740;BME280;4909;42.680;26.324;2022-12-10T11:26:52;97720.03;;;19.13;79.62
9740;BME280;4909;42.680;26.324;2022-12-10T11:29:43;97769.03;;;19.45;80.68
9740;BME280;4909;42.680;26.324;2022-12-10T11:32:26;97780.34;;;19.39;80.59
9740;BME280;4909;42.680;26.324;2022-12-10T11:35:05;97772.16;;;19.50;81.55
9740;BME280;4909;42.680;26.324;2022-12-10T11:37:38;97765.06;;;19.49;81.26
9740;BME280;4909;42.680;26.324;2022-12-10T11:40:23;97756.38;;;19.65;80.91
9740;BME280;4909;42.680;26.324;2022-12-10T11:43:06;97751.13;;;19.64;79.18
9740;BME280;4909;42.680;26.324;2022-12-10T11:45:44;97699.50;;;19.31;80.48
9740;BME280;4909;42.680;26.324;2022-12-10T11:48:29;97726.84;;;19.46;80.72
9740;BME280;4909;42.680;26.324;2022-12-10T11:51:00;97741.50;;;19.42;80.15
9740;BME280;4909;42.680;26.324;2022-12-10T11:53:50;97762.78;;;19.35;79.06
9740;BME280;4909;42.680;26.324;2022-12-10T11:56:23;97756.81;;;19.51;79.55
9740;BME280;4909;42.680;26.324;2022-12-10T11:59:02;97735.44;;;19.49;79.54
9740;BME280;4909;42.680;26.324;2022-12-10T12:01:49;97745.88;;;19.62;79.47
9740;BME280;4909;42.680;26.324;2022-12-10T12:04:27;97739.53;;;19.63;78.55
9740;BME280;4909;42.680;26.324;2022-12-10T12:07:06;97740.41;;;19.54;78.15
9740;BME280;4909;42.680;26.324;2022-12-10T12:09:46;97727.81;;;19.45;78.99
9740;BME280;4909;42.680;26.324;2022-12-10T12:12:22;97753.38;;;19.68;79.45
9740;BME280;4909;42.680;26.324;2022-12-10T12:14:56;97752.41;;;19.69;78.55
9740;BME280;4909;42.680;26.324;2022-12-10T12:17:27;97753.84;;;19.64;78.80
9740;BME280;4909;42.680;26.324;2022-12-10T12:20:00;97738.38;;;19.56;78.20
9740;BME280;4909;42.680;26.324;2022-12-10T12:22:31;97738.25;;;19.58;79.32
9740;BME280;4909;42.680;26.324;2022-12-10T12:25:02;97726.38;;;19.60;79.47
9740;BME280;4909;42.680;26.324;2022-12-10T12:27:33;97730.22;;;19.29;79.33
9740;BME280;4909;42.680;26.324;2022-12-10T12:30:05;97726.00;;;19.26;79.90
9740;BME280;4909;42.680;26.324;2022-12-10T12:32:53;97737.00;;;19.33;79.82
9740;BME280;4909;42.680;26.324;2022-12-10T12:35:28;97723.56;;;19.33;80.93
9740;BME280;4909;42.680;26.324;2022-12-10T12:37:59;97712.75;;;19.42;80.07
9740;BME280;4909;42.680;26.324;2022-12-10T12:40:30;97725.13;;;19.35;80.99
9740;BME280;4909;42.680;26.324;2022-12-10T12:43:01;97709.25;;;19.32;81.29
9740;BME280;4909;42.680;26.324;2022-12-10T12:45:36;97702.03;;;19.33;81.84
9740;BME280;4909;42.680;26.324;2022-12-10T12:48:14;97694.16;;;19.12;81.83
9740;BME280;4909;42.680;26.324;2022-12-10T12:50:46;97699.25;;;19.05;80.51
9740;BME280;4909;42.680;26.324;2022-12-10T12:53:15;97695.19;;;18.73;80.89
9740;BME280;4909;42.680;26.324;2022-12-10T12:55:48;97659.19;;;18.45;82.80
9740;BME280;4909;42.680;26.324;2022-12-10T12:58:24;97703.47;;;18.50;83.97
9740;BME280;4909;42.680;26.324;2022-12-10T13:00:55;97692.00;;;18.29;83.45
9740;BME280;4909;42.680;26.324;2022-12-10T13:03:35;97689.00;;;18.22;84.07
9740;BME280;4909;42.680;26.324;2022-12-10T13:06:20;97691.41;;;18.16;85.74
9740;BME280;4909;42.680;26.324;2022-12-10T13:08:50;97699.19;;;18.19;84.84
9740;BME280;4909;42.680;26.324;2022-12-10T13:11:28;97694.22;;;18.05;86.36
9740;BME280;4909;42.680;26.324;2022-12-10T13:16:48;97660.47;;;17.72;87.47
9740;BME280;4909;42.680;26.324;2022-12-10T13:19:24;97694.28;;;17.84;88.09
9740;BME280;4909;42.680;26.324;2022-12-10T13:22:06;97706.28;;;17.80;87.21
9740;BME280;4909;42.680;26.324;2022-12-10T13:24:59;97688.16;;;17.72;87.50
9740;BME280;4909;42.680;26.324;2022-12-10T13:27:30;97693.81;;;17.69;90.02
9740;BME280;4909;42.680;26.324;2022-12-10T13:30:00;97701.03;;;17.78;87.96